Terminal Aerodrome Forecast
Issued by NWS

Home | Current Version | Previous Version | Text Only | Print | Product List | Glossary On
Versions: 1 2 3 4 5 6 7 8 9 10 11 12 13 14 15 16 17 18 19 20 21
000
FTUS42 KJAX 241740
TAFCRG
TAF
KCRG 241740Z 2418/2518 07010G17KT P6SM SCT025
      TEMPO 2418/2420 BKN025
     FM250000 05006KT P6SM FEW020 SCT250
     FM250400 00000KT 3SM BR OVC005
     FM251400 26008KT P6SM SCT035=

USA.gov is the U.S. government's official web portal to all federal, state and local government web resources and services.